FLX9911 SBSL-SBBE
Flight info
| Callsign | FLX9911 |
|---|---|
| Flight time | 0h 44m |
| Altitude | 34000 |
| Route | SAVIO DCT LIVED |
| Aircraft | B738/M-SDE2E3FGHIRWXY/LB1 |
Departure
| Time | 2026-05-05 23:59 |
|---|---|
| Airport | Marechal Cunha Machado International Airport (SBSL) |
Arrival
| Time | 2026-05-06 00:44 |
|---|---|
| Airport | Val de Cans/Júlio Cezar Ribeiro International Airport (SBBE) |
| Time | Latitude | Longitude | Altitude | Speed | Heading |
|---|---|---|---|---|---|
| 2026-05-05 23:41 | -2.58429 | -44.23607 | 162 ft | 0 kts | 341° |
| 2026-05-05 23:50 | -2.58442 | -44.23603 | 162 ft | 2 kts | 342° |
| 2026-05-05 23:50 | -2.58458 | -44.23598 | 162 ft | 2 kts | 345° |
| 2026-05-05 23:51 | -2.58474 | -44.23595 | 162 ft | 2 kts | 358° |
| 2026-05-05 23:51 | -2.58490 | -44.23599 | 162 ft | 2 kts | 59° |
| 2026-05-05 23:51 | -2.58494 | -44.23607 | 162 ft | 1 kts | 70° |
| 2026-05-05 23:54 | -2.58492 | -44.23602 | 162 ft | 1 kts | 70° |
| 2026-05-05 23:54 | -2.58486 | -44.23587 | 162 ft | 3 kts | 69° |
| 2026-05-05 23:54 | -2.58476 | -44.23561 | 162 ft | 5 kts | 69° |
| 2026-05-05 23:54 | -2.58462 | -44.23524 | 162 ft | 7 kts | 69° |
| 2026-05-05 23:55 | -2.58444 | -44.23477 | 162 ft | 8 kts | 72° |
| 2026-05-05 23:55 | -2.58461 | -44.23422 | 162 ft | 9 kts | 122° |
| 2026-05-05 23:55 | -2.58516 | -44.23398 | 162 ft | 9 kts | 191° |
| 2026-05-05 23:55 | -2.58571 | -44.23431 | 162 ft | 9 kts | 217° |
| 2026-05-05 23:56 | -2.58621 | -44.23470 | 163 ft | 9 kts | 217° |
| 2026-05-05 23:56 | -2.58677 | -44.23516 | 163 ft | 12 kts | 218° |
| 2026-05-05 23:56 | -2.58755 | -44.23579 | 162 ft | 16 kts | 218° |
| 2026-05-05 23:56 | -2.58854 | -44.23658 | 162 ft | 20 kts | 219° |
| 2026-05-05 23:57 | -2.58972 | -44.23753 | 161 ft | 23 kts | 219° |
| 2026-05-05 23:57 | -2.59107 | -44.23862 | 159 ft | 27 kts | 219° |
| 2026-05-05 23:57 | -2.59256 | -44.23982 | 159 ft | 28 kts | 219° |
| 2026-05-05 23:57 | -2.59416 | -44.24111 | 159 ft | 30 kts | 220° |
| 2026-05-05 23:58 | -2.59571 | -44.24238 | 160 ft | 29 kts | 218° |
| 2026-05-05 23:58 | -2.59655 | -44.24342 | 160 ft | 5 kts | 206° |
| 2026-05-05 23:58 | -2.59674 | -44.24333 | 160 ft | 3 kts | 120° |
| 2026-05-05 23:58 | -2.59665 | -44.24314 | 160 ft | 6 kts | 44° |
| 2026-05-05 23:59 | -2.59520 | -44.24197 | 160 ft | 66 kts | 39° |
| 2026-05-05 23:59 | -2.58934 | -44.23724 | 162 ft | 147 kts | 39° |
| 2026-05-05 23:59 | -2.57969 | -44.22960 | 437 ft | 194 kts | 39° |
| 2026-05-05 23:59 | -2.56952 | -44.22127 | 1698 ft | 180 kts | 37° |
| 2026-05-06 00:00 | -2.55968 | -44.21333 | 2758 ft | 190 kts | 40° |
| 2026-05-06 00:00 | -2.54865 | -44.20445 | 3113 ft | 218 kts | 41° |
| 2026-05-06 00:00 | -2.53584 | -44.19481 | 3408 ft | 240 kts | 30° |
| 2026-05-06 00:00 | -2.51921 | -44.19109 | 3806 ft | 261 kts | 357° |
| 2026-05-06 00:01 | -2.50163 | -44.19751 | 4246 ft | 281 kts | 324° |
| 2026-05-06 00:01 | -2.48884 | -44.21241 | 5094 ft | 286 kts | 301° |
| 2026-05-06 00:01 | -2.47920 | -44.22994 | 5984 ft | 289 kts | 297° |
| 2026-05-06 00:01 | -2.46991 | -44.24799 | 6806 ft | 294 kts | 298° |
| 2026-05-06 00:02 | -2.46027 | -44.26615 | 7593 ft | 298 kts | 299° |
| 2026-05-06 00:02 | -2.45025 | -44.28451 | 8403 ft | 302 kts | 300° |
| 2026-05-06 00:02 | -2.43999 | -44.30303 | 9205 ft | 306 kts | 300° |
| 2026-05-06 00:02 | -2.43368 | -44.31571 | 9732 ft | 310 kts | 290° |
| 2026-05-06 00:03 | -2.43133 | -44.33709 | 10387 ft | 318 kts | 261° |
| 2026-05-06 00:03 | -2.43802 | -44.36701 | 10666 ft | 350 kts | 264° |
| 2026-05-06 00:03 | -2.43714 | -44.39204 | 10849 ft | 372 kts | 276° |
| 2026-05-06 00:03 | -2.43432 | -44.41837 | 11168 ft | 386 kts | 275° |
| 2026-05-06 00:04 | -2.43189 | -44.44539 | 11735 ft | 392 kts | 274° |
| 2026-05-06 00:04 | -2.43049 | -44.46375 | 12198 ft | 393 kts | 274° |
| 2026-05-06 00:04 | -2.42867 | -44.49108 | 12907 ft | 394 kts | 273° |
| 2026-05-06 00:04 | -2.42709 | -44.51812 | 13566 ft | 397 kts | 272° |
| 2026-05-06 00:05 | -2.42411 | -44.57380 | 14691 ft | 404 kts | 272° |
| 2026-05-06 00:05 | -2.42265 | -44.60202 | 15230 ft | 407 kts | 272° |
| 2026-05-06 00:05 | -2.42117 | -44.63041 | 15761 ft | 410 kts | 272° |
| 2026-05-06 00:06 | -2.41968 | -44.65901 | 16277 ft | 414 kts | 272° |
| 2026-05-06 00:06 | -2.41817 | -44.68787 | 16785 ft | 417 kts | 272° |
| 2026-05-06 00:06 | -2.41664 | -44.71690 | 17282 ft | 420 kts | 272° |
| 2026-05-06 00:06 | -2.41510 | -44.74620 | 17773 ft | 423 kts | 272° |
| 2026-05-06 00:07 | -2.41355 | -44.77559 | 18243 ft | 426 kts | 272° |
| 2026-05-06 00:07 | -2.41199 | -44.80534 | 18648 ft | 429 kts | 273° |
| 2026-05-06 00:07 | -2.41041 | -44.83527 | 19054 ft | 432 kts | 273° |
| 2026-05-06 00:07 | -2.40882 | -44.86537 | 19469 ft | 434 kts | 273° |
| 2026-05-06 00:08 | -2.40696 | -44.89557 | 19864 ft | 436 kts | 275° |
| 2026-05-06 00:08 | -2.40382 | -44.92580 | 20246 ft | 439 kts | 277° |
| 2026-05-06 00:08 | -2.39996 | -44.95617 | 20623 ft | 441 kts | 277° |
| 2026-05-06 00:08 | -2.39585 | -44.98668 | 21001 ft | 444 kts | 278° |
| 2026-05-06 00:09 | -2.39172 | -45.01735 | 21372 ft | 446 kts | 277° |
| 2026-05-06 00:09 | -2.38765 | -45.04819 | 21736 ft | 448 kts | 277° |
| 2026-05-06 00:09 | -2.38367 | -45.07915 | 22081 ft | 451 kts | 277° |
| 2026-05-06 00:09 | -2.37979 | -45.10990 | 22418 ft | 453 kts | 277° |
| 2026-05-06 00:10 | -2.37590 | -45.14121 | 22756 ft | 455 kts | 277° |
| 2026-05-06 00:10 | -2.37201 | -45.17267 | 23088 ft | 457 kts | 277° |
| 2026-05-06 00:10 | -2.36812 | -45.20428 | 23412 ft | 459 kts | 277° |
| 2026-05-06 00:10 | -2.36421 | -45.23605 | 23699 ft | 461 kts | 277° |
| 2026-05-06 00:11 | -2.36030 | -45.26785 | 23961 ft | 463 kts | 277° |
| 2026-05-06 00:11 | -2.35637 | -45.29975 | 24239 ft | 464 kts | 277° |
| 2026-05-06 00:11 | -2.35244 | -45.33162 | 24512 ft | 465 kts | 277° |
| 2026-05-06 00:11 | -2.34847 | -45.36381 | 24758 ft | 467 kts | 276° |
| 2026-05-06 00:12 | -2.34449 | -45.39607 | 25004 ft | 468 kts | 276° |
| 2026-05-06 00:12 | -2.34051 | -45.42827 | 25245 ft | 470 kts | 276° |
| 2026-05-06 00:12 | -2.33649 | -45.46077 | 25479 ft | 471 kts | 276° |
| 2026-05-06 00:12 | -2.33247 | -45.49333 | 25723 ft | 473 kts | 276° |
| 2026-05-06 00:13 | -2.32844 | -45.52599 | 25961 ft | 474 kts | 276° |
| 2026-05-06 00:13 | -2.32439 | -45.55875 | 26189 ft | 475 kts | 276° |
| 2026-05-06 00:13 | -2.32032 | -45.59162 | 26411 ft | 477 kts | 276° |
| 2026-05-06 00:13 | -2.31625 | -45.62460 | 26630 ft | 478 kts | 276° |
| 2026-05-06 00:14 | -2.31217 | -45.65754 | 26839 ft | 480 kts | 276° |
| 2026-05-06 00:14 | -2.30807 | -45.69069 | 27048 ft | 481 kts | 276° |
| 2026-05-06 00:14 | -2.30396 | -45.72395 | 27266 ft | 482 kts | 276° |
| 2026-05-06 00:14 | -2.29984 | -45.75727 | 27472 ft | 484 kts | 276° |
| 2026-05-06 00:15 | -2.29568 | -45.79084 | 27676 ft | 485 kts | 276° |
| 2026-05-06 00:15 | -2.29153 | -45.82436 | 27862 ft | 486 kts | 276° |
| 2026-05-06 00:15 | -2.28742 | -45.85756 | 28047 ft | 487 kts | 276° |
| 2026-05-06 00:15 | -2.28325 | -45.89124 | 28232 ft | 489 kts | 276° |
| 2026-05-06 00:16 | -2.27907 | -45.92502 | 28417 ft | 490 kts | 276° |
| 2026-05-06 00:16 | -2.27488 | -45.95884 | 28599 ft | 491 kts | 275° |
| 2026-05-06 00:16 | -2.27068 | -45.99270 | 28767 ft | 492 kts | 275° |
| 2026-05-06 00:16 | -2.26646 | -46.02675 | 28929 ft | 493 kts | 275° |
| 2026-05-06 00:17 | -2.26225 | -46.06078 | 29102 ft | 494 kts | 275° |
| 2026-05-06 00:17 | -2.25802 | -46.09488 | 29325 ft | 494 kts | 275° |
| 2026-05-06 00:17 | -2.25380 | -46.12888 | 29619 ft | 492 kts | 275° |
| 2026-05-06 00:17 | -2.24958 | -46.16282 | 29905 ft | 491 kts | 275° |
| 2026-05-06 00:18 | -2.24538 | -46.19666 | 30148 ft | 491 kts | 275° |
| 2026-05-06 00:18 | -2.24119 | -46.23047 | 30353 ft | 491 kts | 275° |
| 2026-05-06 00:18 | -2.23699 | -46.26433 | 30593 ft | 489 kts | 275° |
| 2026-05-06 00:18 | -2.23281 | -46.29800 | 30858 ft | 488 kts | 275° |
| 2026-05-06 00:19 | -2.22863 | -46.33166 | 31119 ft | 487 kts | 275° |
| 2026-05-06 00:19 | -2.22447 | -46.36516 | 31388 ft | 485 kts | 275° |
| 2026-05-06 00:19 | -2.22031 | -46.39860 | 31662 ft | 484 kts | 276° |
| 2026-05-06 00:19 | -2.21617 | -46.43195 | 31942 ft | 483 kts | 276° |
| 2026-05-06 00:20 | -2.21203 | -46.46527 | 32218 ft | 482 kts | 276° |
| 2026-05-06 00:20 | -2.20790 | -46.49848 | 32499 ft | 481 kts | 276° |
| 2026-05-06 00:20 | -2.20380 | -46.53154 | 32797 ft | 479 kts | 276° |
| 2026-05-06 00:20 | -2.19967 | -46.56471 | 33094 ft | 478 kts | 276° |
| 2026-05-06 00:21 | -2.19558 | -46.59763 | 33385 ft | 477 kts | 276° |
| 2026-05-06 00:21 | -2.19149 | -46.63054 | 33663 ft | 476 kts | 276° |
| 2026-05-06 00:21 | -2.18741 | -46.66333 | 33971 ft | 475 kts | 276° |
| 2026-05-06 00:22 | -2.17924 | -46.72905 | 34050 ft | 477 kts | 276° |
| 2026-05-06 00:22 | -2.17107 | -46.79467 | 34040 ft | 474 kts | 276° |
| 2026-05-06 00:23 | -2.16300 | -46.85953 | 34049 ft | 472 kts | 276° |
| 2026-05-06 00:23 | -2.15490 | -46.92456 | 34046 ft | 471 kts | 276° |
| 2026-05-06 00:24 | -2.14681 | -46.98951 | 34049 ft | 470 kts | 276° |
| 2026-05-06 00:24 | -2.14275 | -47.02205 | 33879 ft | 473 kts | 276° |
| 2026-05-06 00:24 | -2.13858 | -47.05480 | 33194 ft | 476 kts | 278° |
| 2026-05-06 00:24 | -2.13021 | -47.08661 | 32937 ft | 472 kts | 290° |
| 2026-05-06 00:25 | -2.11678 | -47.11668 | 32556 ft | 473 kts | 297° |
| 2026-05-06 00:25 | -2.09971 | -47.14448 | 31829 ft | 468 kts | 305° |
| 2026-05-06 00:25 | -2.08051 | -47.17085 | 30694 ft | 470 kts | 306° |
| 2026-05-06 00:25 | -2.06097 | -47.19740 | 29227 ft | 479 kts | 306° |
| 2026-05-06 00:26 | -2.04107 | -47.22446 | 27722 ft | 484 kts | 306° |
| 2026-05-06 00:26 | -2.02122 | -47.25162 | 26321 ft | 486 kts | 306° |
| 2026-05-06 00:26 | -2.00161 | -47.27863 | 25267 ft | 481 kts | 306° |
| 2026-05-06 00:26 | -1.98182 | -47.30601 | 24429 ft | 481 kts | 306° |
| 2026-05-06 00:27 | -1.96227 | -47.33316 | 23693 ft | 478 kts | 306° |
| 2026-05-06 00:27 | -1.94289 | -47.36009 | 22847 ft | 476 kts | 306° |
| 2026-05-06 00:27 | -1.92365 | -47.38683 | 22090 ft | 471 kts | 306° |
| 2026-05-06 00:27 | -1.90490 | -47.41290 | 21378 ft | 466 kts | 306° |
| 2026-05-06 00:28 | -1.88605 | -47.43909 | 20654 ft | 462 kts | 306° |
| 2026-05-06 00:28 | -1.86738 | -47.46503 | 19936 ft | 458 kts | 306° |
| 2026-05-06 00:28 | -1.84880 | -47.49085 | 19222 ft | 455 kts | 306° |
| 2026-05-06 00:28 | -1.83040 | -47.51640 | 18517 ft | 452 kts | 306° |
| 2026-05-06 00:29 | -1.81208 | -47.54184 | 17727 ft | 449 kts | 306° |
| 2026-05-06 00:29 | -1.79388 | -47.56711 | 16997 ft | 445 kts | 306° |
| 2026-05-06 00:29 | -1.77593 | -47.59204 | 16299 ft | 440 kts | 306° |
| 2026-05-06 00:29 | -1.75814 | -47.61674 | 15597 ft | 436 kts | 306° |
| 2026-05-06 00:30 | -1.74050 | -47.64124 | 14901 ft | 432 kts | 306° |
| 2026-05-06 00:30 | -1.72307 | -47.66544 | 14221 ft | 429 kts | 306° |
| 2026-05-06 00:30 | -1.70567 | -47.68961 | 13538 ft | 425 kts | 306° |
| 2026-05-06 00:30 | -1.68862 | -47.71328 | 12893 ft | 417 kts | 306° |
| 2026-05-06 00:31 | -1.67171 | -47.73675 | 12267 ft | 413 kts | 306° |
| 2026-05-06 00:31 | -1.65562 | -47.75910 | 11492 ft | 413 kts | 307° |
| 2026-05-06 00:31 | -1.63881 | -47.78243 | 11171 ft | 400 kts | 307° |
| 2026-05-06 00:31 | -1.62297 | -47.80444 | 11040 ft | 383 kts | 307° |
| 2026-05-06 00:32 | -1.60772 | -47.82563 | 10932 ft | 367 kts | 307° |
| 2026-05-06 00:32 | -1.59382 | -47.84493 | 10793 ft | 347 kts | 307° |
| 2026-05-06 00:32 | -1.57970 | -47.86455 | 10577 ft | 329 kts | 307° |
| 2026-05-06 00:32 | -1.56666 | -47.88265 | 10430 ft | 312 kts | 307° |
| 2026-05-06 00:33 | -1.55424 | -47.89989 | 10300 ft | 300 kts | 307° |
| 2026-05-06 00:33 | -1.54221 | -47.91659 | 10181 ft | 292 kts | 307° |
| 2026-05-06 00:33 | -1.53049 | -47.93285 | 10051 ft | 285 kts | 307° |
| 2026-05-06 00:33 | -1.51911 | -47.94863 | 9765 ft | 284 kts | 307° |
| 2026-05-06 00:34 | -1.50741 | -47.96485 | 9478 ft | 283 kts | 307° |
| 2026-05-06 00:34 | -1.49594 | -47.98075 | 9186 ft | 282 kts | 307° |
| 2026-05-06 00:34 | -1.48453 | -47.99659 | 8892 ft | 281 kts | 307° |
| 2026-05-06 00:34 | -1.47313 | -48.01240 | 8603 ft | 280 kts | 307° |
| 2026-05-06 00:35 | -1.46191 | -48.02797 | 8318 ft | 279 kts | 307° |
| 2026-05-06 00:35 | -1.45104 | -48.04304 | 8037 ft | 279 kts | 307° |
| 2026-05-06 00:35 | -1.43971 | -48.05877 | 7729 ft | 280 kts | 307° |
| 2026-05-06 00:35 | -1.42816 | -48.07479 | 7411 ft | 282 kts | 307° |
| 2026-05-06 00:36 | -1.41677 | -48.09059 | 7102 ft | 283 kts | 307° |
| 2026-05-06 00:36 | -1.40532 | -48.10648 | 6815 ft | 283 kts | 307° |
| 2026-05-06 00:36 | -1.39382 | -48.12244 | 6510 ft | 283 kts | 307° |
| 2026-05-06 00:36 | -1.38232 | -48.13840 | 6200 ft | 282 kts | 307° |
| 2026-05-06 00:37 | -1.37085 | -48.15433 | 5899 ft | 282 kts | 307° |
| 2026-05-06 00:37 | -1.35942 | -48.17020 | 5599 ft | 281 kts | 307° |
| 2026-05-06 00:37 | -1.34804 | -48.18600 | 5305 ft | 280 kts | 308° |
| 2026-05-06 00:37 | -1.33664 | -48.20181 | 5016 ft | 279 kts | 307° |
| 2026-05-06 00:38 | -1.32529 | -48.21757 | 4729 ft | 279 kts | 307° |
| 2026-05-06 00:38 | -1.31397 | -48.23328 | 4438 ft | 278 kts | 307° |
| 2026-05-06 00:38 | -1.30272 | -48.24887 | 4151 ft | 276 kts | 307° |
| 2026-05-06 00:38 | -1.29212 | -48.26457 | 3911 ft | 269 kts | 300° |
| 2026-05-06 00:39 | -1.28416 | -48.28101 | 3684 ft | 258 kts | 295° |
| 2026-05-06 00:39 | -1.27692 | -48.29700 | 3446 ft | 247 kts | 296° |
| 2026-05-06 00:39 | -1.26997 | -48.31207 | 3212 ft | 237 kts | 296° |
| 2026-05-06 00:39 | -1.26317 | -48.32658 | 3014 ft | 224 kts | 296° |
| 2026-05-06 00:40 | -1.25862 | -48.34099 | 2773 ft | 215 kts | 271° |
| 2026-05-06 00:40 | -1.26334 | -48.35457 | 2656 ft | 207 kts | 229° |
| 2026-05-06 00:40 | -1.27243 | -48.36521 | 2453 ft | 195 kts | 228° |
| 2026-05-06 00:40 | -1.28040 | -48.37560 | 2263 ft | 182 kts | 228° |
| 2026-05-06 00:41 | -1.28873 | -48.38442 | 2083 ft | 168 kts | 221° |
| 2026-05-06 00:41 | -1.29743 | -48.39309 | 2068 ft | 196 kts | 222° |
| 2026-05-06 00:41 | -1.30781 | -48.40359 | 1768 ft | 218 kts | 223° |
| 2026-05-06 00:41 | -1.31810 | -48.41408 | 1500 ft | 203 kts | 223° |
| 2026-05-06 00:42 | -1.32754 | -48.42365 | 1237 ft | 186 kts | 223° |
| 2026-05-06 00:42 | -1.33621 | -48.43244 | 1012 ft | 169 kts | 223° |
| 2026-05-06 00:42 | -1.34402 | -48.44035 | 826 ft | 156 kts | 224° |
| 2026-05-06 00:42 | -1.35145 | -48.44789 | 602 ft | 149 kts | 224° |
| 2026-05-06 00:43 | -1.35856 | -48.45509 | 406 ft | 143 kts | 224° |
| 2026-05-06 00:43 | -1.36544 | -48.46206 | 267 ft | 139 kts | 224° |
| 2026-05-06 00:43 | -1.37227 | -48.46909 | 61 ft | 142 kts | 226° |
| 2026-05-06 00:43 | -1.37793 | -48.47479 | 40 ft | 65 kts | 225° |
| 2026-05-06 00:44 | -1.38011 | -48.47624 | 39 ft | 22 kts | 182° |
| 2026-05-06 00:44 | -1.38159 | -48.47638 | 42 ft | 21 kts | 185° |
| 2026-05-06 00:44 | -1.38302 | -48.47650 | 42 ft | 20 kts | 185° |
| 2026-05-06 00:44 | -1.38441 | -48.47662 | 42 ft | 20 kts | 185° |
| 2026-05-06 00:45 | -1.38575 | -48.47675 | 43 ft | 19 kts | 186° |
| 2026-05-06 00:45 | -1.38662 | -48.47720 | 43 ft | 10 kts | 250° |
| 2026-05-06 00:45 | -1.38673 | -48.47771 | 41 ft | 8 kts | 243° |
| 2026-05-06 00:45 | -1.38720 | -48.47794 | 40 ft | 7 kts | 189° |
| 2026-05-06 00:46 | -1.38770 | -48.47800 | 42 ft | 7 kts | 186° |
| 2026-05-06 00:46 | -1.38818 | -48.47804 | 42 ft | 7 kts | 183° |
| 2026-05-06 00:46 | -1.38866 | -48.47808 | 40 ft | 7 kts | 186° |
| 2026-05-06 00:46 | -1.38913 | -48.47813 | 42 ft | 7 kts | 185° |
| 2026-05-06 00:47 | -1.38954 | -48.47828 | 42 ft | 7 kts | 234° |
| 2026-05-06 00:47 | -1.38960 | -48.47871 | 42 ft | 5 kts | 273° |
| 2026-05-06 00:47 | -1.38959 | -48.47887 | 42 ft | 0 kts | 275° |